Time;durP1;ratioP1;P1;durP2;ratioP2;P2;SDS_P1;SDS_P2;PMS_P1;PMS_P2;Temp;Humidity;BMP_temperature;BMP_pressure;BME280_temperature;BME280_humidity;BME280_pressure;Samples;Min_cycle;Max_cycle;Signal;HPM_P1;HPM_P2
2021/12/18 00:00:11;;;;;;;3.05;2.42;;;;;;;4.60;62.42;100818.84;5348696;26;32254;-90
2021/12/18 00:02:44;;;;;;;2.25;2.05;;;;;;;4.59;62.77;100824.84;5365405;26;34394;-92
2021/12/18 00:05:13;;;;;;;2.65;2.25;;;;;;;4.56;62.66;100823.84;5339977;26;33668;-91
2021/12/18 00:07:42;;;;;;;3.60;2.00;;;;;;;4.83;61.70;100818.62;5361792;26;33298;-89
2021/12/18 00:10:12;;;;;;;4.57;2.30;;;;;;;4.39;63.03;100828.50;5368859;26;33716;-92
2021/12/18 00:12:47;;;;;;;3.17;2.27;;;;;;;4.50;62.90;100824.56;5367251;26;34803;-88
2021/12/18 00:15:16;;;;;;;3.05;2.10;;;;;;;4.36;63.06;100828.41;5347613;26;33684;-93
2021/12/18 00:17:45;;;;;;;3.08;2.28;;;;;;;4.38;63.23;100835.34;5361167;26;33688;-91
2021/12/18 00:20:15;;;;;;;3.28;2.08;;;;;;;4.53;62.70;100837.50;5360986;26;33616;-92
2021/12/18 00:22:45;;;;;;;3.75;2.75;;;;;;;4.53;62.97;100846.91;5340879;26;33716;-92
2021/12/18 00:25:15;;;;;;;2.58;1.80;;;;;;;4.93;61.62;100841.22;5360949;26;33476;-92
2021/12/18 00:27:44;;;;;;;3.10;2.30;;;;;;;4.99;60.97;100835.38;5346449;26;32748;-90
2021/12/18 00:30:18;;;;;;;1.80;1.70;;;;;;;4.48;62.87;100837.34;5360378;26;34573;-90
2021/12/18 00:32:46;;;;;;;2.60;2.10;;;;;;;4.27;63.72;100834.13;5361663;26;33692;-91
2021/12/18 00:35:17;;;;;;;3.78;2.10;;;;;;;4.37;63.65;100836.13;5361077;26;34724;-90
2021/12/18 00:37:46;;;;;;;3.10;2.47;;;;;;;4.09;64.57;100837.00;5361787;26;33352;-91
2021/12/18 00:40:23;;;;;;;4.05;3.08;;;;;;;4.23;64.32;100850.28;5344842;26;32068;-90
2021/12/18 00:42:59;;;;;;;3.37;2.20;;;;;;;4.15;64.46;100846.59;5366446;26;34694;-91
2021/12/18 00:45:28;;;;;;;3.45;2.62;;;;;;;4.28;64.00;100847.03;5360662;26;34731;-92
2021/12/18 00:47:58;;;;;;;3.58;2.20;;;;;;;4.30;64.16;100847.09;5360377;26;33398;-91
2021/12/18 00:50:30;;;;;;;4.75;2.58;;;;;;;4.38;63.86;100848.19;5361049;26;33626;-88
2021/12/18 00:52:59;;;;;;;4.00;2.22;;;;;;;4.14;64.32;100855.13;5363675;26;34079;-90
2021/12/18 00:55:30;;;;;;;7.25;2.92;;;;;;;4.23;64.46;100850.28;5365734;26;34384;-92
2021/12/18 00:57:59;;;;;;;3.83;2.15;;;;;;;4.19;64.64;100840.72;5360717;26;33615;-91
2021/12/18 01:00:27;;;;;;;3.62;3.33;;;;;;;4.40;63.96;100850.81;5361762;26;34558;-91
2021/12/18 01:02:59;;;;;;;4.15;2.53;;;;;;;3.98;65.65;100854.63;5362027;26;33833;-91
2021/12/18 01:05:30;;;;;;;3.60;2.65;;;;;;;3.57;66.90;100846.44;5362127;26;34001;-93
2021/12/18 01:07:59;;;;;;;2.13;1.90;;;;;;;4.24;65.00;100844.31;5340421;26;31885;-93
2021/12/18 01:10:43;;;;;;;3.37;2.28;;;;;;;4.55;63.99;100852.97;5346169;26;32271;-92
2021/12/18 01:13:18;;;;;;;3.42;2.15;;;;;;;3.78;66.26;100851.41;5341558;26;32579;-94
2021/12/18 01:15:51;;;;;;;4.05;2.37;;;;;;;3.81;66.72;100853.22;5363417;26;34361;-92
2021/12/18 01:23:56;;;;;;;3.67;2.10;;;;;;;4.13;65.50;100849.12;5325905;26;34787;-92
2021/12/18 01:26:26;;;;;;;3.53;2.20;;;;;;;4.26;65.28;100856.38;5361762;26;34480;-93
2021/12/18 01:28:56;;;;;;;4.20;2.83;;;;;;;4.27;65.56;100867.53;5365499;26;33439;-95
2021/12/18 01:31:25;;;;;;;3.47;2.75;;;;;;;4.18;65.48;100865.56;5362649;26;33494;-90
2021/12/18 01:33:53;;;;;;;3.00;2.42;;;;;;;4.33;65.44;100869.44;5363268;26;34508;-90
2021/12/18 01:36:23;;;;;;;5.95;3.00;;;;;;;3.99;66.80;100879.50;5361161;26;34021;-93
2021/12/18 01:38:52;;;;;;;3.25;2.15;;;;;;;4.14;66.46;100886.81;5360832;26;33614;-93
2021/12/18 01:41:20;;;;;;;3.67;2.45;;;;;;;3.94;66.99;100880.16;5366008;26;33467;-89
2021/12/18 01:44:36;;;;;;;4.18;2.45;;;;;;;4.17;66.70;100884.34;5340936;26;33970;-92
2021/12/18 01:51:13;;;;;;;4.03;2.65;;;;;;;3.95;67.11;100880.22;5363087;26;33992;-93
2021/12/18 01:52:40;;;;;;;4.78;2.40;;;;;;;4.31;66.33;100887.34;5361163;26;33675;-93
2021/12/18 01:55:09;;;;;;;3.95;2.80;;;;;;;4.01;67.16;100893.25;5361527;26;33460;-91
2021/12/18 01:57:39;;;;;;;3.72;2.72;;;;;;;4.46;65.55;100898.09;5341648;26;32598;-91
2021/12/18 02:00:17;;;;;;;3.85;2.75;;;;;;;4.22;65.82;100903.34;5359970;26;33547;-92
2021/12/18 02:02:47;;;;;;;3.50;2.58;;;;;;;4.44;65.25;100899.75;5346067;26;33095;-90
2021/12/18 02:05:16;;;;;;;4.93;2.58;;;;;;;4.73;63.85;100904.03;5360702;26;34003;-92
2021/12/18 02:07:46;;;;;;;3.60;2.37;;;;;;;4.74;63.90;100896.38;5360436;26;33828;-95
2021/12/18 02:10:19;;;;;;;4.47;3.37;;;;;;;4.56;64.47;100899.25;5363967;26;32827;-91
2021/12/18 02:12:56;;;;;;;2.90;2.25;;;;;;;4.52;64.40;100905.13;5369574;26;34341;-90
2021/12/18 02:21:06;;;;;;;3.08;2.20;;;;;;;4.38;64.86;100909.84;5365596;26;34010;-91
2021/12/18 02:23:38;;;;;;;3.50;3.20;;;;;;;4.44;64.84;100914.28;5370758;26;34182;-92
2021/12/18 02:26:07;;;;;;;3.87;2.70;;;;;;;4.55;64.51;100912.94;5365337;26;34322;-93
2021/12/18 02:28:36;;;;;;;3.97;2.30;;;;;;;4.03;65.99;100912.13;5340736;26;33378;-90
2021/12/18 02:31:05;;;;;;;3.30;2.40;;;;;;;4.15;65.80;100910.78;5359551;26;33546;-88
2021/12/18 02:33:34;;;;;;;5.65;2.33;;;;;;;4.25;65.39;100915.41;5366467;26;33802;-87
2021/12/18 02:36:07;;;;;;;5.15;2.83;;;;;;;4.22;65.72;100918.75;5340905;26;33698;-93
2021/12/18 02:39:00;;;;;;;3.03;2.17;;;;;;;4.31;65.22;100918.19;5362301;26;34961;-89
2021/12/18 02:41:33;;;;;;;4.37;2.78;;;;;;;4.41;64.85;100914.19;5365081;26;33328;-92
2021/12/18 02:44:05;;;;;;;3.00;2.15;;;;;;;4.40;64.96;100925.31;5368923;26;34022;-90
2021/12/18 02:46:34;;;;;;;2.85;2.17;;;;;;;4.25;65.56;100921.44;5347116;26;33393;-89
2021/12/18 02:49:06;;;;;;;2.85;2.45;;;;;;;4.28;65.51;100942.06;5371667;26;33822;-89
2021/12/18 02:51:37;;;;;;;3.55;2.70;;;;;;;4.40;64.86;100936.47;5349694;26;32401;-88
2021/12/18 02:54:10;;;;;;;4.12;2.33;;;;;;;4.76;63.71;100945.25;5364759;26;33661;-89
2021/12/18 02:56:39;;;;;;;2.85;1.98;;;;;;;4.32;64.69;100943.03;5361644;26;34366;-93
2021/12/18 02:59:09;;;;;;;2.95;2.20;;;;;;;4.61;64.12;100933.66;5348504;26;32899;-90
2021/12/18 03:01:41;;;;;;;2.90;2.22;;;;;;;4.18;65.32;100927.19;5354411;26;33897;-89
2021/12/18 03:04:18;;;;;;;3.33;2.17;;;;;;;4.32;64.97;100929.31;5354226;26;32253;-91
2021/12/18 03:06:52;;;;;;;2.67;2.12;;;;;;;4.20;65.60;100930.66;5341555;26;31936;-89
2021/12/18 03:09:52;;;;;;;3.12;2.10;;;;;;;4.09;65.93;100926.88;5361789;26;34583;-89
2021/12/18 03:23:38;;;;;;;3.97;2.83;;;;;;;4.12;65.54;100946.66;5271275;27;33309;-91
2021/12/18 03:26:07;;;;;;;4.32;2.50;;;;;;;4.11;65.29;100950.94;5276315;27;33866;-89
2021/12/18 03:28:36;;;;;;;2.92;2.15;;;;;;;4.12;65.40;100952.66;5253566;27;32412;-89
2021/12/18 03:31:05;;;;;;;2.40;2.00;;;;;;;4.39;64.46;100955.25;5271379;27;34005;-91
2021/12/18 03:33:34;;;;;;;4.43;3.03;;;;;;;4.17;65.10;100963.09;5275986;27;34091;-89
2021/12/18 03:36:04;;;;;;;4.03;2.28;;;;;;;3.93;65.43;100971.69;5269812;27;33295;-93
2021/12/18 03:38:35;;;;;;;3.65;2.70;;;;;;;4.38;64.50;100968.94;5272039;27;33383;-92
2021/12/18 03:41:04;;;;;;;2.62;2.12;;;;;;;4.13;65.08;100968.94;5276317;27;33832;-91
2021/12/18 03:43:33;;;;;;;2.53;2.10;;;;;;;4.31;64.38;100971.25;5271305;27;34230;-92
2021/12/18 03:46:01;;;;;;;4.45;2.40;;;;;;;3.99;65.18;100971.06;5270556;27;33395;-93
2021/12/18 03:48:30;;;;;;;3.72;2.15;;;;;;;4.11;65.23;100975.72;5252650;27;33121;-91
2021/12/18 03:50:59;;;;;;;2.97;2.03;;;;;;;4.24;64.65;100965.91;5270873;27;34159;-92
2021/12/18 03:53:28;;;;;;;3.40;2.45;;;;;;;3.90;65.50;100956.19;5257467;27;32315;-91
2021/12/18 03:56:00;;;;;;;4.12;2.90;;;;;;;3.87;65.74;100961.25;5252455;27;32151;-91
2021/12/18 03:58:28;;;;;;;2.47;2.25;;;;;;;4.25;64.67;100959.06;5271671;27;33428;-92
2021/12/18 04:00:58;;;;;;;3.80;2.78;;;;;;;4.33;64.41;100975.63;5302148;26;33826;-92
2021/12/18 04:03:27;;;;;;;4.90;2.50;;;;;;;3.88;65.68;100972.37;5342244;26;31681;-91
2021/12/18 04:05:56;;;;;;;3.45;2.90;;;;;;;3.85;65.57;100981.72;5368054;26;33567;-93
2021/12/18 04:08:25;;;;;;;4.47;2.65;;;;;;;3.91;66.01;100975.03;5363156;26;33502;-92
2021/12/18 04:10:54;;;;;;;4.20;2.50;;;;;;;3.92;65.65;100979.37;5365840;26;34808;-94
2021/12/18 04:13:24;;;;;;;3.80;2.40;;;;;;;3.81;65.92;100958.44;5367029;26;33345;-92
2021/12/18 04:15:53;;;;;;;3.95;2.42;;;;;;;3.90;65.93;100950.19;5348977;26;31841;-91
2021/12/18 04:18:22;;;;;;;7.15;3.78;;;;;;;4.16;64.77;100951.09;5369587;26;33954;-92
2021/12/18 04:20:51;;;;;;;3.58;2.33;;;;;;;4.01;65.28;100960.03;5369715;26;35099;-93
2021/12/18 04:23:20;;;;;;;6.00;2.47;;;;;;;4.06;65.39;100953.34;5366011;26;34790;-89
2021/12/18 04:25:49;;;;;;;4.25;2.35;;;;;;;3.72;65.61;100951.31;5348408;26;33298;-91
2021/12/18 04:28:18;;;;;;;4.87;2.78;;;;;;;3.98;65.30;100964.16;5342683;26;33608;-90
2021/12/18 04:30:48;;;;;;;4.78;2.72;;;;;;;3.79;66.09;100972.91;5346225;26;34250;-92
2021/12/18 04:33:17;;;;;;;3.33;2.10;;;;;;;3.71;66.30;100971.78;5368332;26;35386;-92
2021/12/18 04:35:46;;;;;;;3.75;2.28;;;;;;;3.90;65.52;100971.59;5363206;26;33774;-94
2021/12/18 04:38:15;;;;;;;3.65;2.83;;;;;;;3.76;66.05;100977.94;5344900;26;34056;-96
2021/12/18 04:40:44;;;;;;;3.30;2.58;;;;;;;3.48;66.69;100978.66;5361772;26;34615;-95
2021/12/18 04:43:13;;;;;;;2.97;2.28;;;;;;;3.66;66.30;100981.88;5362768;26;34271;-93
2021/12/18 04:45:42;;;;;;;4.87;2.20;;;;;;;3.82;65.88;100988.44;5369536;26;33889;-91
2021/12/18 04:48:12;;;;;;;3.08;2.28;;;;;;;3.81;65.79;100982.41;5365361;26;35337;-92
2021/12/18 04:50:41;;;;;;;2.30;2.10;;;;;;;3.56;66.21;100995.22;5346834;26;33057;-91
2021/12/18 04:53:10;;;;;;;3.53;2.22;;;;;;;3.76;65.48;100993.34;5369643;26;34503;-91
2021/12/18 04:55:39;;;;;;;5.10;2.65;;;;;;;3.58;66.09;101001.28;5369293;26;33746;-93
2021/12/18 04:58:08;;;;;;;5.37;2.87;;;;;;;4.06;64.53;101009.84;5372215;26;34758;-92
2021/12/18 05:00:39;;;;;;;3.78;2.53;;;;;;;4.05;64.47;101022.59;5343904;26;33443;-91
2021/12/18 05:03:12;;;;;;;4.75;2.65;;;;;;;3.92;64.89;101016.19;5346995;26;32038;-91
2021/12/18 05:05:45;;;;;;;7.40;2.40;;;;;;;3.74;65.23;101029.22;5368699;26;33512;-88
2021/12/18 05:08:14;;;;;;;2.10;1.85;;;;;;;3.87;64.81;101021.94;5361649;26;33659;-90
2021/12/18 05:10:43;;;;;;;4.30;2.65;;;;;;;3.72;64.95;101025.75;5344812;26;32544;-90
2021/12/18 05:13:12;;;;;;;3.92;2.70;;;;;;;3.94;64.17;101023.91;5369851;26;32993;-94
2021/12/18 05:15:40;;;;;;;3.97;2.58;;;;;;;3.61;65.30;101042.44;5366360;26;34594;-91
2021/12/18 05:18:10;;;;;;;3.15;1.90;;;;;;;3.77;64.82;101054.13;5347876;26;33265;-89
2021/12/18 05:20:39;;;;;;;3.37;2.25;;;;;;;3.73;64.84;101049.72;5370849;26;34940;-91
2021/12/18 05:23:09;;;;;;;4.22;2.75;;;;;;;3.55;65.19;101053.38;5361405;26;33457;-92
2021/12/18 05:25:38;;;;;;;3.77;2.57;;;;;;;3.91;64.01;101041.78;5370904;26;34166;-92
2021/12/18 05:28:06;;;;;;;3.00;2.17;;;;;;;3.90;64.12;101051.19;5349637;26;33441;-92
2021/12/18 05:30:35;;;;;;;3.53;2.50;;;;;;;3.95;63.74;101049.66;5351290;26;33621;-93
2021/12/18 05:33:04;;;;;;;2.30;2.10;;;;;;;3.90;63.98;101047.75;5371436;26;33670;-91
2021/12/18 05:35:33;;;;;;;3.35;2.37;;;;;;;3.84;64.16;101049.28;5371984;26;33687;-90
2021/12/18 05:38:08;;;;;;;7.12;3.25;;;;;;;3.73;64.48;101047.16;5373057;26;34956;-92
2021/12/18 05:40:40;;;;;;;2.90;2.35;;;;;;;3.46;65.62;101053.00;5349506;26;34206;-92
2021/12/18 05:43:09;;;;;;;3.55;2.30;;;;;;;3.55;65.56;101058.50;5363525;26;32919;-93
2021/12/18 05:45:39;;;;;;;2.28;2.08;;;;;;;3.41;65.91;101045.16;5362274;26;33584;-93
2021/12/18 05:48:08;;;;;;;2.85;2.28;;;;;;;3.36;66.32;101049.22;5346180;26;33258;-92
2021/12/18 05:50:37;;;;;;;2.58;2.00;;;;;;;3.19;66.76;101065.69;5371734;26;34025;-92
2021/12/18 05:53:06;;;;;;;3.60;2.87;;;;;;;3.40;66.02;101057.91;5372244;26;33794;-91
2021/12/18 05:55:37;;;;;;;3.33;2.25;;;;;;;3.49;65.62;101059.94;5347301;26;33751;-92
2021/12/18 05:58:07;;;;;;;3.83;2.42;;;;;;;3.45;65.92;101074.34;5346056;26;33255;-93
2021/12/18 06:00:39;;;;;;;5.85;3.35;;;;;;;3.49;65.82;101073.66;5363704;26;35251;-92
2021/12/18 06:03:08;;;;;;;3.65;2.33;;;;;;;3.19;66.58;101073.38;5341460;26;32284;-93
2021/12/18 06:05:37;;;;;;;2.75;2.10;;;;;;;3.18;66.87;101069.91;5369499;26;33569;-91
2021/12/18 06:08:10;;;;;;;5.65;3.17;;;;;;;3.04;67.48;101075.31;5363688;26;34046;-89
2021/12/18 06:10:39;;;;;;;3.17;2.45;;;;;;;3.04;67.37;101071.06;5361660;26;33816;-91
2021/12/18 06:13:11;;;;;;;2.92;2.35;;;;;;;3.14;67.06;101062.03;5361644;26;34549;-91
2021/12/18 06:15:40;;;;;;;2.78;2.30;;;;;;;3.09;67.37;101069.53;5367494;26;33018;-91
2021/12/18 06:18:08;;;;;;;3.00;2.60;;;;;;;2.99;67.48;101070.00;5345114;26;32723;-91
2021/12/18 06:20:37;;;;;;;4.40;2.90;;;;;;;3.05;67.03;101084.78;5371470;26;34037;-92
2021/12/18 06:23:06;;;;;;;4.12;2.62;;;;;;;3.20;66.41;101075.97;5368031;26;34025;-92
2021/12/18 06:25:35;;;;;;;3.55;2.75;;;;;;;3.29;66.15;101080.59;5366642;26;33940;-91
2021/12/18 06:28:04;;;;;;;2.37;2.00;;;;;;;3.23;66.13;101084.59;5366657;26;34597;-93
2021/12/18 06:30:34;;;;;;;4.57;2.65;;;;;;;3.08;66.66;101085.75;5363762;26;34501;-92
2021/12/18 06:33:03;;;;;;;4.35;2.65;;;;;;;3.12;66.46;101082.50;5350720;26;33973;-91
2021/12/18 06:35:32;;;;;;;3.00;2.55;;;;;;;3.20;66.26;101082.78;5345363;26;32290;-94
2021/12/18 06:38:01;;;;;;;3.37;2.40;;;;;;;3.34;65.55;101084.19;5342248;26;33247;-92
2021/12/18 06:40:30;;;;;;;5.07;2.33;;;;;;;3.35;65.60;101075.69;5361741;26;35090;-94
2021/12/18 06:42:59;;;;;;;3.10;2.30;;;;;;;3.53;64.90;101082.34;5361869;26;33626;-93
2021/12/18 06:45:28;;;;;;;5.43;2.35;;;;;;;3.68;64.30;101088.03;5347632;26;32515;-91
2021/12/18 06:47:58;;;;;;;4.50;2.83;;;;;;;3.38;65.39;101098.91;5362806;26;33902;-90
2021/12/18 06:50:27;;;;;;;4.07;2.37;;;;;;;3.37;65.59;101102.28;5363873;26;32973;-94
2021/12/18 06:52:56;;;;;;;3.67;2.65;;;;;;;3.62;64.79;101110.91;5369756;26;33307;-91
2021/12/18 06:55:25;;;;;;;3.05;2.17;;;;;;;3.41;65.12;101116.09;5370098;26;33562;-93
2021/12/18 06:57:54;;;;;;;2.72;2.50;;;;;;;3.11;66.49;101123.47;5362438;26;34299;-95
2021/12/18 07:00:24;;;;;;;5.72;2.12;;;;;;;3.26;65.95;101113.78;5366777;26;34499;-92
2021/12/18 07:02:53;;;;;;;3.92;2.67;;;;;;;3.14;66.58;101124.47;5361375;26;34250;-92
2021/12/18 07:05:24;;;;;;;4.65;2.97;;;;;;;3.30;65.86;101113.09;5364215;26;33338;-92
2021/12/18 07:07:55;;;;;;;3.97;2.87;;;;;;;3.08;66.63;101113.09;5365040;26;33852;-94
2021/12/18 07:10:24;;;;;;;4.85;2.80;;;;;;;3.34;65.83;101109.00;5370182;26;34292;-92
2021/12/18 07:12:53;;;;;;;4.10;2.42;;;;;;;3.30;66.16;101115.66;5350728;26;32136;-92
2021/12/18 07:15:22;;;;;;;2.92;2.30;;;;;;;3.09;66.70;101105.44;5343914;26;32960;-93
2021/12/18 07:17:51;;;;;;;2.72;2.10;;;;;;;3.32;66.01;101106.34;5343105;26;33939;-93
2021/12/18 07:20:20;;;;;;;2.80;2.50;;;;;;;3.25;66.21;101101.78;5340394;26;34155;-92
2021/12/18 07:22:50;;;;;;;3.53;2.47;;;;;;;3.29;66.15;101102.81;5338953;26;33739;-90
2021/12/18 07:25:19;;;;;;;3.33;2.43;;;;;;;3.42;66.10;101110.16;5344086;26;34294;-91
2021/12/18 07:27:48;;;;;;;4.37;2.90;;;;;;;3.29;66.39;101095.13;5338347;26;33028;-91
2021/12/18 07:33:58;;;;;;;3.12;2.10;;;;;;;3.19;67.07;101106.69;5342339;26;34739;-91
2021/12/18 07:36:41;;;;;;;3.03;2.03;;;;;;;3.03;67.96;101114.59;5345500;26;32283;-89
2021/12/18 07:39:16;;;;;;;4.10;2.85;;;;;;;3.31;66.71;101125.13;5343955;26;34284;-90
2021/12/18 07:41:50;;;;;;;3.20;2.70;;;;;;;3.31;66.61;101121.66;5346542;26;34029;-88
2021/12/18 07:44:23;;;;;;;3.12;2.50;;;;;;;3.27;67.18;101127.50;5342475;26;33079;-90
2021/12/18 07:47:43;;;;;;;3.22;2.40;;;;;;;3.40;66.76;101135.72;5348343;26;32997;-90
2021/12/18 07:50:21;;;;;;;2.53;2.33;;;;;;;3.52;66.64;101140.47;5304766;26;34137;-92
2021/12/18 07:52:56;;;;;;;4.50;3.08;;;;;;;3.46;66.45;101147.94;5348980;26;34141;-90
2021/12/18 07:55:28;;;;;;;3.70;2.75;;;;;;;3.49;66.42;101147.19;5344738;26;33973;-90
2021/12/18 07:57:57;;;;;;;2.95;2.30;;;;;;;3.47;66.47;101159.94;5347522;26;34071;-89
2021/12/18 08:00:26;;;;;;;3.70;2.35;;;;;;;3.46;66.60;101155.63;5346214;26;32320;-89
2021/12/18 08:02:55;;;;;;;3.25;2.80;;;;;;;3.24;67.49;101166.75;5346875;26;34061;-88
2021/12/18 08:05:28;;;;;;;3.83;2.42;;;;;;;3.38;66.88;101174.97;5348524;26;34002;-87
2021/12/18 08:07:57;;;;;;;3.17;2.65;;;;;;;3.33;67.24;101164.50;5351633;26;33507;-89
2021/12/18 08:10:27;;;;;;;6.00;2.75;;;;;;;3.45;66.79;101145.31;5345862;26;33823;-89
2021/12/18 08:12:56;;;;;;;8.00;3.13;;;;;;;3.61;66.30;101133.13;5345294;26;35112;-88
2021/12/18 08:15:25;;;;;;;5.28;3.30;;;;;;;3.60;66.25;101140.75;5367857;26;33872;-90
2021/12/18 08:17:57;;;;;;;4.90;3.03;;;;;;;3.66;66.08;101145.25;5368274;26;33611;-88
2021/12/18 08:20:26;;;;;;;2.10;1.95;;;;;;;3.42;66.67;101146.06;5371245;26;34429;-91
2021/12/18 08:22:55;;;;;;;3.08;2.40;;;;;;;3.42;67.10;101146.06;5369244;26;33832;-89
2021/12/18 08:25:26;;;;;;;2.72;2.05;;;;;;;3.56;66.51;101151.75;5368066;26;33415;-95
2021/12/18 08:27:58;;;;;;;3.47;2.03;;;;;;;3.62;65.93;101149.37;5369521;26;33697;-90
2021/12/18 08:30:27;;;;;;;2.87;2.47;;;;;;;3.68;65.87;101144.50;5367122;26;33706;-92
2021/12/18 08:32:58;;;;;;;2.97;2.05;;;;;;;3.64;66.23;101145.19;5350515;26;34075;-86
2021/12/18 08:35:28;;;;;;;5.15;2.75;;;;;;;3.49;66.03;101135.22;5371700;26;33525;-91
2021/12/18 08:37:57;;;;;;;2.92;2.28;;;;;;;3.95;65.06;101136.97;5368701;26;34378;-91
2021/12/18 08:40:27;;;;;;;6.07;3.00;;;;;;;4.00;64.48;101145.69;5349876;26;33602;-90
2021/12/18 08:43:16;;;;;;;4.55;2.60;;;;;;;3.94;64.63;101142.91;5366751;26;34872;-89
2021/12/18 08:45:45;;;;;;;3.15;2.55;;;;;;;3.91;64.92;101154.75;5371239;26;33692;-88
2021/12/18 08:48:18;;;;;;;3.53;2.92;;;;;;;4.12;64.50;101150.41;5373230;26;33820;-91
2021/12/18 08:50:46;;;;;;;4.37;2.75;;;;;;;4.14;64.09;101146.22;5371865;26;33550;-92
2021/12/18 08:53:15;;;;;;;6.03;2.87;;;;;;;3.99;64.37;101156.81;5368015;26;34425;-89
2021/12/18 08:55:44;;;;;;;2.40;2.20;;;;;;;4.14;63.67;101146.22;5365851;26;33776;-92
2021/12/18 08:58:13;;;;;;;5.65;2.40;;;;;;;4.13;63.68;101146.16;5366523;26;34003;-91
2021/12/18 09:00:45;;;;;;;4.30;2.92;;;;;;;4.19;63.64;101144.69;5370092;26;33281;-87
2021/12/18 09:03:14;;;;;;;5.93;3.10;;;;;;;4.47;62.52;101137.97;5373449;26;34069;-91
2021/12/18 09:05:43;;;;;;;4.70;3.30;;;;;;;4.51;62.38;101150.06;5370690;26;33529;-90
2021/12/18 09:08:14;;;;;;;3.95;2.42;;;;;;;4.80;61.65;101152.78;5369460;26;33598;-89
2021/12/18 09:10:44;;;;;;;3.72;2.40;;;;;;;4.62;61.49;101143.62;5367968;26;35390;-90
2021/12/18 09:13:13;;;;;;;4.87;2.47;;;;;;;4.80;62.00;101140.78;5367598;26;33732;-90
2021/12/18 09:15:42;;;;;;;3.67;2.50;;;;;;;4.79;61.22;101145.91;5371211;26;34438;-88
2021/12/18 09:18:13;;;;;;;4.10;2.83;;;;;;;4.63;61.67;101136.78;5349982;26;33551;-90
2021/12/18 09:20:44;;;;;;;3.58;2.53;;;;;;;4.92;61.12;101135.19;5371034;26;35175;-88
2021/12/18 09:23:25;;;;;;;6.68;3.12;;;;;;;4.95;60.76;101142.13;5368223;26;34434;-90
2021/12/18 09:25:56;;;;;;;3.95;3.12;;;;;;;4.74;60.91;101129.44;5367930;26;33682;-88
2021/12/18 09:28:26;;;;;;;2.87;2.30;;;;;;;4.55;61.60;101130.50;5368995;26;34030;-91
2021/12/18 09:30:55;;;;;;;2.60;2.28;;;;;;;4.52;61.33;101128.72;5373825;26;34009;-93
2021/12/18 09:33:27;;;;;;;5.25;2.75;;;;;;;4.54;61.08;101132.19;5368971;26;33230;-87
2021/12/18 09:35:56;;;;;;;5.35;2.53;;;;;;;4.76;60.46;101127.78;5349213;26;32727;-91
2021/12/18 09:38:32;;;;;;;2.28;2.08;;;;;;;4.59;60.81;101129.78;5366622;26;33879;-89
2021/12/18 09:41:06;;;;;;;3.42;2.55;;;;;;;4.68;60.42;101124.94;5365984;26;33511;-91
2021/12/18 09:43:35;;;;;;;4.33;2.80;;;;;;;4.76;60.13;101128.69;5345461;26;33652;-90
2021/12/18 09:46:05;;;;;;;3.05;2.60;;;;;;;4.87;60.03;101131.59;5372350;26;34227;-89
2021/12/18 09:48:37;;;;;;;4.55;2.95;;;;;;;4.58;60.36;101135.75;5366064;26;33597;-90
2021/12/18 09:51:08;;;;;;;5.65;2.47;;;;;;;4.91;59.01;101139.47;5368703;26;34393;-89
2021/12/18 09:53:37;;;;;;;2.35;2.10;;;;;;;5.05;58.58;101142.50;5368401;26;34464;-88
2021/12/18 09:56:07;;;;;;;3.53;2.47;;;;;;;4.86;59.13;101132.44;5369131;26;33653;-89
2021/12/18 09:58:35;;;;;;;3.87;2.75;;;;;;;5.10;58.27;101130.66;5372335;26;34015;-91
2021/12/18 10:01:04;;;;;;;3.78;2.85;;;;;;;5.09;58.23;101128.87;5365446;26;33623;-89
2021/12/18 10:03:48;;;;;;;3.08;2.40;;;;;;;4.87;58.62;101118.72;5367624;26;34025;-89
2021/12/18 10:06:34;;;;;;;4.68;2.05;;;;;;;4.73;59.25;101130.25;5368258;26;33705;-90
2021/12/18 10:09:08;;;;;;;4.12;2.58;;;;;;;4.88;59.01;101123.03;5361750;26;33790;-90
2021/12/18 10:11:46;;;;;;;3.15;2.03;;;;;;;5.03;58.60;101126.13;5366789;26;34370;-89
2021/12/18 10:14:16;;;;;;;2.70;2.47;;;;;;;5.18;58.05;101125.75;5348003;26;33313;-87
2021/12/18 10:16:52;;;;;;;2.37;1.90;;;;;;;5.11;58.21;101124.66;5373325;26;33534;-90
2021/12/18 10:19:30;;;;;;;3.58;2.35;;;;;;;5.12;58.23;101112.66;5369941;26;34096;-88
2021/12/18 10:22:01;;;;;;;2.65;2.20;;;;;;;5.18;57.94;101114.59;5367540;26;33841;-89
2021/12/18 10:24:40;;;;;;;2.50;2.20;;;;;;;5.65;56.69;101115.16;5349034;26;33170;-88
2021/12/18 10:27:31;;;;;;;5.20;2.83;;;;;;;5.66;56.53;101111.75;5370514;26;34281;-88
2021/12/18 10:30:20;;;;;;;3.80;2.42;;;;;;;5.60;56.62;101107.28;5351032;26;32893;-87
2021/12/18 10:33:00;;;;;;;2.25;1.95;;;;;;;5.64;55.90;101103.12;5367694;26;33565;-90
2021/12/18 10:35:41;;;;;;;3.50;2.42;;;;;;;5.64;55.85;101105.69;5370887;26;34398;-88
2021/12/18 10:38:45;;;;;;;2.00;1.90;;;;;;;5.58;56.02;101096.06;5370329;26;33595;-89
2021/12/18 10:41:22;;;;;;;1.95;1.85;;;;;;;5.80;55.06;101095.00;5369568;26;33623;-91
2021/12/18 10:44:02;;;;;;;2.65;1.92;;;;;;;5.70;55.08;101083.56;5348252;26;35269;-89
2021/12/18 10:46:32;;;;;;;7.32;2.60;;;;;;;5.63;55.31;101084.22;5370247;26;34123;-87
2021/12/18 10:49:06;;;;;;;3.72;1.80;;;;;;;5.83;55.01;101076.19;5369931;26;33869;-88
2021/12/18 10:51:38;;;;;;;2.75;2.08;;;;;;;6.07;54.16;101068.31;5351100;26;32886;-87
2021/12/18 10:54:09;;;;;;;5.40;2.50;;;;;;;6.24;53.93;101073.94;5368429;26;33985;-90
2021/12/18 10:56:40;;;;;;;4.62;2.33;;;;;;;6.01;53.71;101065.56;5371434;26;34113;-91
2021/12/18 10:59:21;;;;;;;2.37;2.17;;;;;;;5.70;54.28;101062.97;5368735;26;33219;-90
2021/12/18 11:01:52;;;;;;;2.10;1.70;;;;;;;5.97;53.56;101052.59;5365150;26;34770;-89
2021/12/18 11:04:24;;;;;;;2.60;2.15;;;;;;;6.11;53.55;101057.25;5368637;26;34092;-90
2021/12/18 11:06:56;;;;;;;3.17;2.45;;;;;;;6.33;53.09;101062.16;5367260;26;34084;-92
2021/12/18 11:09:28;;;;;;;;;;;;;;;6.33;51.97;101059.56;5364250;26;32947;-90
2021/12/18 11:14:47;;;;;;;3.45;2.22;;;;;;;6.43;52.39;101041.75;5348158;26;32743;-91
2021/12/18 11:17:20;;;;;;;2.25;1.98;;;;;;;6.56;51.60;101036.06;5364041;26;33779;-89
2021/12/18 11:19:51;;;;;;;2.72;2.30;;;;;;;6.26;52.50;101028.44;5363621;26;34396;-89
2021/12/18 11:22:22;;;;;;;2.03;1.83;;;;;;;6.11;52.42;101021.16;5367519;26;33524;-88
2021/12/18 11:24:59;;;;;;;2.80;2.25;;;;;;;6.11;52.99;101024.66;5359117;26;33816;-93
2021/12/18 11:27:29;;;;;;;2.60;2.08;;;;;;;6.40;52.37;101022.81;5368468;26;33307;-94
2021/12/18 11:30:01;;;;;;;5.37;2.25;;;;;;;6.56;51.79;101007.72;5342352;26;33465;-91
2021/12/18 11:32:33;;;;;;;2.22;1.70;;;;;;;6.66;51.20;101008.81;5362212;26;33835;-90
2021/12/18 11:35:03;;;;;;;;;;;;;;;6.52;51.68;101001.59;5368295;26;33042;-89
2021/12/18 11:37:40;;;;;;;2.05;1.85;;;;;;;6.39;52.04;101004.72;5364928;26;34541;-90
2021/12/18 11:40:11;;;;;;;2.10;1.83;;;;;;;6.17;52.20;100988.72;5369550;26;34613;-90
2021/12/18 11:42:41;;;;;;;3.78;2.05;;;;;;;6.08;52.42;100987.59;5369573;26;34324;-91
2021/12/18 11:45:10;;;;;;;3.53;2.75;;;;;;;5.99;52.77;101003.69;5370355;26;33695;-89
2021/12/18 11:47:40;;;;;;;4.40;1.95;;;;;;;5.91;53.30;100994.88;5367557;26;33964;-92
2021/12/18 11:50:26;;;;;;;2.00;1.80;;;;;;;6.25;52.17;101004.38;5368231;26;35999;-88
2021/12/18 11:53:01;;;;;;;3.08;1.95;;;;;;;6.22;52.23;100983.69;5365688;26;34073;-92
2021/12/18 11:55:32;;;;;;;2.35;2.15;;;;;;;6.36;51.79;100981.47;5371531;26;34048;-90
2021/12/18 11:58:03;;;;;;;1.60;1.50;;;;;;;6.14;52.06;100992.94;5368196;26;35526;-92
2021/12/18 12:00:38;;;;;;;2.62;1.90;;;;;;;5.94;52.94;100980.41;5351254;26;32725;-91
2021/12/18 12:03:10;;;;;;;1.90;1.62;;;;;;;6.16;52.56;100993.81;5348039;26;33039;-89
2021/12/18 12:05:40;;;;;;;;;;;;;;;6.44;52.26;100977.34;5348069;26;32975;-90
2021/12/18 12:08:22;;;;;;;2.47;1.90;;;;;;;6.71;51.85;100969.37;5367588;26;35341;-89
2021/12/18 12:11:20;;;;;;;4.75;3.33;;;;;;;6.68;51.99;100971.03;5373260;26;33312;-88
2021/12/18 12:13:56;;;;;;;2.90;2.03;;;;;;;6.72;51.43;100968.56;5369904;26;33732;-91
2021/12/18 12:17:17;;;;;;;2.03;1.83;;;;;;;6.38;51.91;100985.81;5345654;26;34263;-92
2021/12/18 12:19:54;;;;;;;2.85;2.00;;;;;;;6.44;52.48;100981.63;5373787;26;34430;-90
2021/12/18 12:22:38;;;;;;;2.00;1.80;;;;;;;6.53;52.01;100974.12;5371472;26;34324;-89
2021/12/18 12:25:14;;;;;;;2.95;2.00;;;;;;;6.45;51.95;100989.41;5368681;26;33519;-88
2021/12/18 12:27:45;;;;;;;1.65;1.55;;;;;;;6.31;52.55;100990.78;5371055;26;34496;-91